Time;durP1;ratioP1;P1;durP2;ratioP2;P2;SDS_P1;SDS_P2;PMS_P1;PMS_P2;Temp;Humidity;BMP_temperature;BMP_pressure;BME280_temperature;BME280_humidity;BME280_pressure;Samples;Min_cycle;Max_cycle;Signal;HPM_P1;HPM_P2
2022/10/03 00:00:17;;;;;;;11.57;4.78;;;;;;;;;;5073403;28;20045;-87
2022/10/03 00:02:47;;;;;;;10.55;4.97;;;;;;;;;;5073291;28;20049;-87
2022/10/03 00:05:34;;;;;;;10.27;5.25;;;;;;;;;;5055575;28;20052;-87
2022/10/03 00:08:07;;;;;;;10.48;5.00;;;;;;;;;;5073174;28;20052;-87
2022/10/03 00:10:53;;;;;;;7.40;5.50;;;;;;;;;;5055659;28;20045;-88
2022/10/03 00:13:28;;;;;;;9.23;5.45;;;;;;;;;;5073201;28;20507;-87
2022/10/03 00:16:17;;;;;;;13.90;5.18;;;;;;;;;;5073025;28;20048;-87
2022/10/03 00:18:58;;;;;;;10.77;5.78;;;;;;;;;;5073138;28;20484;-87
2022/10/03 00:21:44;;;;;;;14.63;5.47;;;;;;;;;;5055462;28;20064;-87
2022/10/03 00:24:30;;;;;;;8.88;5.20;;;;;;;;;;5055143;28;20055;-88
2022/10/03 00:27:18;;;;;;;13.55;5.40;;;;;;;;;;5075217;28;20507;-87
2022/10/03 00:30:04;;;;;;;9.60;6.18;;;;;;;;;;5059213;28;20056;-87
2022/10/03 00:32:34;;;;;;;13.63;5.40;;;;;;;;;;5059193;28;20072;-87
2022/10/03 00:35:15;;;;;;;10.45;5.00;;;;;;;;;;5059011;28;20049;-87
2022/10/03 00:37:49;;;;;;;15.60;5.05;;;;;;;;;;5059389;28;20048;-88
2022/10/03 00:40:41;;;;;;;10.77;6.00;;;;;;;;;;5058942;28;20407;-87
2022/10/03 00:43:20;;;;;;;8.85;4.70;;;;;;;;;;5076639;28;20044;-87
2022/10/03 00:45:57;;;;;;;10.52;5.00;;;;;;;;;;5058957;28;20063;-87
2022/10/03 00:48:43;;;;;;;5.97;4.40;;;;;;;;;;5058783;28;20051;-88
2022/10/03 00:51:28;;;;;;;12.82;5.38;;;;;;;;;;5076165;28;20071;-87
2022/10/03 00:54:08;;;;;;;13.20;4.57;;;;;;;;;;5058358;28;20049;-87
2022/10/03 00:57:12;;;;;;;5.55;3.67;;;;;;;;;;5058907;28;20048;-87
2022/10/03 00:59:48;;;;;;;10.02;3.88;;;;;;;;;;4998539;28;20050;-87
2022/10/03 01:02:24;;;;;;;8.57;3.92;;;;;;;;;;5068527;28;20048;-87
2022/10/03 01:04:59;;;;;;;10.35;3.38;;;;;;;;;;5076204;28;20048;-87
2022/10/03 01:07:29;;;;;;;10.65;4.45;;;;;;;;;;5076326;28;20052;-87
2022/10/03 01:10:18;;;;;;;7.72;3.83;;;;;;;;;;5076110;28;20088;-87
2022/10/03 01:13:05;;;;;;;10.50;2.92;;;;;;;;;;5058855;28;20135;-87
2022/10/03 01:15:33;;;;;;;8.73;3.45;;;;;;;;;;5058060;28;20044;-88
2022/10/03 01:18:16;;;;;;;6.40;3.22;;;;;;;;;;5075943;28;20060;-87
2022/10/03 01:20:57;;;;;;;7.00;3.20;;;;;;;;;;5076232;28;20045;-87
2022/10/03 01:23:43;;;;;;;8.98;3.50;;;;;;;;;;5058359;28;20048;-87
2022/10/03 01:26:22;;;;;;;8.65;3.45;;;;;;;;;;5075519;28;20056;-87
2022/10/03 01:32:06;;;;;;;9.32;4.13;;;;;;;;;;5075657;28;20608;-87
2022/10/03 01:34:41;;;;;;;7.35;3.25;;;;;;;;;;5075770;28;20044;-87
2022/10/03 01:37:11;;;;;;;9.50;3.22;;;;;;;;;;5057192;28;20049;-87
2022/10/03 01:39:46;;;;;;;11.15;4.07;;;;;;;;;;5058415;28;20339;-88
2022/10/03 01:42:33;;;;;;;10.73;4.57;;;;;;;;;;5057745;28;20048;-87
2022/10/03 01:45:06;;;;;;;12.95;3.95;;;;;;;;;;5057558;28;20056;-88
2022/10/03 01:47:33;;;;;;;14.50;3.90;;;;;;;;;;5058327;28;20048;-88
2022/10/03 01:50:12;;;;;;;7.53;3.58;;;;;;;;;;5058397;28;20063;-88
2022/10/03 01:52:42;;;;;;;13.63;3.63;;;;;;;;;;5059060;28;20128;-88
2022/10/03 01:55:10;;;;;;;8.30;3.33;;;;;;;;;;5065048;28;20044;-88
2022/10/03 01:57:37;;;;;;;7.30;3.42;;;;;;;;;;5056945;28;20059;-88
2022/10/03 02:00:11;;;;;;;6.80;3.42;;;;;;;;;;5075234;28;20408;-87
2022/10/03 02:02:45;;;;;;;9.18;2.92;;;;;;;;;;5057898;28;20048;-87
2022/10/03 02:05:35;;;;;;;9.45;3.72;;;;;;;;;;5057476;28;20052;-88
2022/10/03 02:08:02;;;;;;;8.55;3.00;;;;;;;;;;5075292;28;20049;-88
2022/10/03 02:10:34;;;;;;;7.63;2.53;;;;;;;;;;5075283;28;20048;-88
2022/10/03 02:13:17;;;;;;;10.87;2.90;;;;;;;;;;5057843;28;20058;-89
2022/10/03 02:15:44;;;;;;;13.45;2.95;;;;;;;;;;5057490;28;20499;-88
2022/10/03 02:18:22;;;;;;;9.23;3.58;;;;;;;;;;5057416;28;20060;-88
2022/10/03 02:20:49;;;;;;;9.20;3.47;;;;;;;;;;5057209;28;20049;-88
2022/10/03 02:23:26;;;;;;;19.98;4.68;;;;;;;;;;5075319;28;20056;-88
2022/10/03 02:26:00;;;;;;;18.33;4.45;;;;;;;;;;5057631;28;20114;-88
2022/10/03 02:28:31;;;;;;;17.60;4.35;;;;;;;;;;5074967;28;20052;-86
2022/10/03 02:31:17;;;;;;;11.20;3.80;;;;;;;;;;5057487;28;20109;-87
2022/10/03 02:34:05;;;;;;;13.07;4.10;;;;;;;;;;5057087;28;20053;-88
2022/10/03 02:36:36;;;;;;;17.23;3.60;;;;;;;;;;5057243;28;20055;-88
2022/10/03 02:39:22;;;;;;;21.35;4.18;;;;;;;;;;5056879;28;20045;-87
2022/10/03 02:42:16;;;;;;;17.00;4.03;;;;;;;;;;5056915;28;20052;-87
2022/10/03 02:44:45;;;;;;;;;;;;;;;;;;5056937;28;20064;-88
2022/10/03 02:47:21;;;;;;;10.63;3.47;;;;;;;;;;5074256;28;19947;-88
2022/10/03 02:49:51;;;;;;;15.02;3.75;;;;;;;;;;5073368;28;20484;-88
2022/10/03 02:52:33;;;;;;;18.40;3.70;;;;;;;;;;5056202;28;20132;-87
2022/10/03 02:55:06;;;;;;;10.82;3.28;;;;;;;;;;5074315;28;20051;-88
2022/10/03 02:57:36;;;;;;;14.82;3.80;;;;;;;;;;5056515;28;20067;-87
2022/10/03 03:00:10;;;;;;;13.82;3.22;;;;;;;;;;5056546;28;20048;-88
2022/10/03 03:02:57;;;;;;;19.92;3.80;;;;;;;;;;5056467;28;20048;-87
2022/10/03 03:05:27;;;;;;;11.90;3.90;;;;;;;;;;5074089;28;20127;-88
2022/10/03 03:07:58;;;;;;;12.73;3.42;;;;;;;;;;5073693;28;20048;-87
2022/10/03 03:11:05;;;;;;;15.23;3.25;;;;;;;;;;5056436;28;20048;-88
2022/10/03 03:13:38;;;;;;;14.20;3.28;;;;;;;;;;4992721;28;20058;-87
2022/10/03 03:16:13;;;;;;;13.43;3.13;;;;;;;;;;4992630;28;20054;-87
2022/10/03 03:18:53;;;;;;;12.85;3.13;;;;;;;;;;5041042;28;20055;-87
2022/10/03 03:21:29;;;;;;;18.98;3.63;;;;;;;;;;5056022;28;20060;-87
2022/10/03 03:24:14;;;;;;;17.80;3.25;;;;;;;;;;5055829;28;20040;-87
2022/10/03 03:26:42;;;;;;;12.07;3.08;;;;;;;;;;5057550;28;20060;-87
2022/10/03 03:29:25;;;;;;;16.60;3.22;;;;;;;;;;5056371;28;20044;-87
2022/10/03 03:32:00;;;;;;;13.83;3.43;;;;;;;;;;5055964;28;20514;-87
2022/10/03 03:34:38;;;;;;;11.60;3.22;;;;;;;;;;5073760;28;20057;-87
2022/10/03 03:37:18;;;;;;;13.95;3.30;;;;;;;;;;5055720;28;20053;-87
2022/10/03 03:39:48;;;;;;;7.20;2.40;;;;;;;;;;5055696;28;20045;-87
2022/10/03 03:42:15;;;;;;;17.10;2.95;;;;;;;;;;5055546;28;20048;-87
2022/10/03 03:45:01;;;;;;;14.10;2.63;;;;;;;;;;5073409;28;20113;-87
2022/10/03 03:47:50;;;;;;;12.02;3.03;;;;;;;;;;5055855;28;20132;-86
2022/10/03 03:50:23;;;;;;;16.27;3.03;;;;;;;;;;5055933;28;20059;-87
2022/10/03 03:52:51;;;;;;;;;;;;;;;;;;5073592;28;20550;-88
2022/10/03 03:55:18;;;;;;;17.60;2.97;;;;;;;;;;5073419;28;19924;-87
2022/10/03 03:57:51;;;;;;;14.55;2.42;;;;;;;;;;5055594;28;20094;-87
2022/10/03 04:00:20;;;;;;;12.10;2.25;;;;;;;;;;5074955;28;20408;-87
2022/10/03 04:02:47;;;;;;;13.75;3.38;;;;;;;;;;5077544;28;20063;-87
2022/10/03 04:05:20;;;;;;;13.07;3.28;;;;;;;;;;5059610;28;20048;-87
2022/10/03 04:07:58;;;;;;;16.90;3.10;;;;;;;;;;5077402;28;20059;-87
2022/10/03 04:10:41;;;;;;;15.93;2.35;;;;;;;;;;5077318;28;20048;-85
2022/10/03 04:13:20;;;;;;;14.23;2.10;;;;;;;;;;5059383;28;20412;-86
2022/10/03 04:16:06;;;;;;;14.20;2.20;;;;;;;;;;5076936;28;20052;-86
2022/10/03 04:18:59;;;;;;;10.27;2.60;;;;;;;;;;5077106;28;20112;-87
2022/10/03 04:21:49;;;;;;;12.95;2.63;;;;;;;;;;5076972;28;20123;-87
2022/10/03 04:24:26;;;;;;;17.08;2.50;;;;;;;;;;5077076;28;20532;-87
2022/10/03 04:27:02;;;;;;;17.58;2.83;;;;;;;;;;5059166;28;20489;-86
2022/10/03 04:29:40;;;;;;;13.65;2.97;;;;;;;;;;5059240;28;20064;-86
2022/10/03 04:32:25;;;;;;;16.48;4.35;;;;;;;;;;5076696;28;20481;-86
2022/10/03 04:34:59;;;;;;;18.02;6.05;;;;;;;;;;5059182;28;20056;-87
2022/10/03 04:37:34;;;;;;;15.70;4.60;;;;;;;;;;5076657;28;20057;-87
2022/10/03 04:40:10;;;;;;;16.50;4.38;;;;;;;;;;5076751;28;20047;-87
2022/10/03 04:42:45;;;;;;;13.15;4.43;;;;;;;;;;5058706;28;20055;-86
2022/10/03 04:45:31;;;;;;;16.50;3.92;;;;;;;;;;5058513;28;20052;-86
2022/10/03 04:48:05;;;;;;;17.70;4.30;;;;;;;;;;5058794;28;20511;-87
2022/10/03 04:50:56;;;;;;;10.15;3.08;;;;;;;;;;5058814;28;20559;-86
2022/10/03 04:53:29;;;;;;;9.38;2.90;;;;;;;;;;5076429;28;20063;-86
2022/10/03 04:56:06;;;;;;;17.50;3.35;;;;;;;;;;5058388;28;20044;-86
2022/10/03 04:58:43;;;;;;;12.77;3.22;;;;;;;;;;5058846;28;20040;-87
2022/10/03 05:01:17;;;;;;;15.52;4.65;;;;;;;;;;5058700;28;20056;-86
2022/10/03 05:03:48;;;;;;;19.30;4.03;;;;;;;;;;5058634;28;20056;-86
2022/10/03 05:06:22;;;;;;;13.88;2.47;;;;;;;;;;5076127;28;20131;-87
2022/10/03 05:08:59;;;;;;;25.48;7.45;;;;;;;;;;5075900;28;20055;-87
2022/10/03 05:11:38;;;;;;;18.60;7.55;;;;;;;;;;5057647;28;20386;-86
2022/10/03 05:14:06;;;;;;;16.63;8.32;;;;;;;;;;5058150;28;20056;-86
2022/10/03 05:17:02;;;;;;;15.93;8.02;;;;;;;;;;5058503;28;20466;-87
2022/10/03 05:19:40;;;;;;;16.08;7.25;;;;;;;;;;5037010;28;20044;-86
2022/10/03 05:22:07;;;;;;;12.15;5.72;;;;;;;;;;5058251;28;20128;-86
2022/10/03 05:24:43;;;;;;;13.98;3.63;;;;;;;;;;5057998;28;20099;-86
2022/10/03 05:27:11;;;;;;;12.32;3.28;;;;;;;;;;5057948;28;20045;-86
2022/10/03 05:29:43;;;;;;;16.63;3.63;;;;;;;;;;5057928;28;20044;-86
2022/10/03 05:32:25;;;;;;;13.75;3.47;;;;;;;;;;5058051;28;20059;-87
2022/10/03 05:35:01;;;;;;;13.68;3.55;;;;;;;;;;5057761;28;20052;-85
2022/10/03 05:37:43;;;;;;;15.85;3.28;;;;;;;;;;5057911;28;20499;-86
2022/10/03 05:40:23;;;;;;;16.42;3.60;;;;;;;;;;5075644;28;20048;-86
2022/10/03 05:42:51;;;;;;;15.20;3.10;;;;;;;;;;5057873;28;20048;-86
2022/10/03 05:45:37;;;;;;;13.57;3.30;;;;;;;;;;5057762;28;20131;-86
2022/10/03 05:48:30;;;;;;;11.32;3.60;;;;;;;;;;5075915;28;20052;-86
2022/10/03 05:51:12;;;;;;;11.93;2.05;;;;;;;;;;5062835;28;20035;-86
2022/10/03 05:53:51;;;;;;;11.13;3.03;;;;;;;;;;5057559;28;20098;-86
2022/10/03 05:56:30;;;;;;;15.27;2.42;;;;;;;;;;5058125;28;20163;-87
2022/10/03 05:59:16;;;;;;;11.73;2.33;;;;;;;;;;5057727;28;20127;-87
2022/10/03 06:01:46;;;;;;;9.35;2.20;;;;;;;;;;5077704;28;20503;-86
2022/10/03 06:04:34;;;;;;;13.40;2.78;;;;;;;;;;5075091;28;20151;-86
2022/10/03 06:07:11;;;;;;;14.30;2.83;;;;;;;;;;5058658;28;20048;-87
2022/10/03 06:09:41;;;;;;;14.73;2.78;;;;;;;;;;5077021;28;20404;-86
2022/10/03 06:12:19;;;;;;;9.55;2.00;;;;;;;;;;5057063;28;20588;-85
2022/10/03 06:14:50;;;;;;;13.60;2.60;;;;;;;;;;5058031;28;20044;-87
2022/10/03 06:17:33;;;;;;;8.57;2.38;;;;;;;;;;5057334;28;20515;-86
2022/10/03 06:20:25;;;;;;;11.00;2.58;;;;;;;;;;5058531;28;20051;-86
2022/10/03 06:23:11;;;;;;;13.20;1.90;;;;;;;;;;5056923;28;20052;-87
2022/10/03 06:25:51;;;;;;;8.25;1.98;;;;;;;;;;5056664;28;20598;-86
2022/10/03 06:28:32;;;;;;;8.45;1.85;;;;;;;;;;5075531;28;20048;-86
2022/10/03 06:31:02;;;;;;;8.73;1.38;;;;;;;;;;5074766;28;20060;-87
2022/10/03 06:33:48;;;;;;;8.88;2.75;;;;;;;;;;5056619;28;20079;-86
2022/10/03 06:36:27;;;;;;;10.35;1.85;;;;;;;;;;5057233;28;20053;-87
2022/10/03 06:39:13;;;;;;;14.52;3.10;;;;;;;;;;5056641;28;20060;-86
2022/10/03 06:41:59;;;;;;;9.50;3.60;;;;;;;;;;5056549;28;20072;-86
2022/10/03 06:44:45;;;;;;;7.70;2.22;;;;;;;;;;5074341;28;20056;-86
2022/10/03 06:47:32;;;;;;;11.15;1.98;;;;;;;;;;5074491;28;20373;-87
2022/10/03 06:50:05;;;;;;;5.75;1.40;;;;;;;;;;5074077;28;20052;-86
2022/10/03 06:52:43;;;;;;;11.57;2.38;;;;;;;;;;5056618;28;20048;-86
2022/10/03 06:55:29;;;;;;;9.25;2.03;;;;;;;;;;5056541;28;20087;-86
2022/10/03 06:58:07;;;;;;;10.32;2.00;;;;;;;;;;5056119;28;20048;-86
2022/10/03 07:00:53;;;;;;;6.05;1.50;;;;;;;;;;5056430;28;20064;-86
2022/10/03 07:03:39;;;;;;;4.22;1.40;;;;;;;;;;5056215;28;20060;-86
2022/10/03 07:06:15;;;;;;;9.68;1.83;;;;;;;;;;5056398;28;20055;-86
2022/10/03 07:08:49;;;;;;;8.90;1.50;;;;;;;;;;5056126;28;20072;-86
2022/10/03 07:11:25;;;;;;;9.30;1.63;;;;;;;;;;5056094;28;20059;-87
2022/10/03 07:14:08;;;;;;;5.95;1.10;;;;;;;;;;5073738;28;20412;-86
2022/10/03 07:16:38;;;;;;;7.60;1.20;;;;;;;;;;5056226;28;20052;-86
2022/10/03 07:19:06;;;;;;;10.25;2.28;;;;;;;;;;5056030;28;20298;-86
2022/10/03 07:21:39;;;;;;;8.52;2.05;;;;;;;;;;5056030;28;20091;-87
2022/10/03 07:24:32;;;;;;;8.15;1.75;;;;;;;;;;5056217;28;20044;-86
2022/10/03 07:27:08;;;;;;;10.32;2.50;;;;;;;;;;5056041;28;20049;-87
2022/10/03 07:29:58;;;;;;;9.13;2.20;;;;;;;;;;5055731;28;20124;-86
2022/10/03 07:32:34;;;;;;;6.22;1.30;;;;;;;;;;5073597;28;20080;-86
2022/10/03 07:35:20;;;;;;;6.15;1.33;;;;;;;;;;5055349;28;20496;-86
2022/10/03 07:40:42;;;;;;;8.48;1.85;;;;;;;;;;5073596;28;20049;-86
2022/10/03 07:43:09;;;;;;;7.00;1.83;;;;;;;;;;5073532;28;20508;-86
2022/10/03 07:46:04;;;;;;;10.68;2.28;;;;;;;;;;5073419;28;20420;-86
2022/10/03 07:48:50;;;;;;;9.00;1.48;;;;;;;;;;5056124;28;20044;-86
2022/10/03 07:51:31;;;;;;;20.80;2.15;;;;;;;;;;5055822;28;20131;-86
2022/10/03 07:54:18;;;;;;;8.35;1.90;;;;;;;;;;5055598;28;20174;-86
2022/10/03 07:57:05;;;;;;;8.77;1.90;;;;;;;;;;5054476;28;20044;-85
2022/10/03 07:59:39;;;;;;;9.45;1.80;;;;;;;;;;5055730;28;20560;-87
2022/10/03 08:02:25;;;;;;;4.30;1.40;;;;;;;;;;5073179;28;20055;-86
2022/10/03 08:05:05;;;;;;;6.47;1.63;;;;;;;;;;5055435;28;20045;-86
2022/10/03 08:07:53;;;;;;;4.75;1.25;;;;;;;;;;5055411;28;20049;-86
2022/10/03 08:10:23;;;;;;;6.93;1.73;;;;;;;;;;5055219;28;20075;-86
2022/10/03 08:12:58;;;;;;;11.00;1.70;;;;;;;;;;5072669;28;20044;-86
2022/10/03 08:15:34;;;;;;;12.35;2.10;;;;;;;;;;5072845;28;20049;-86
2022/10/03 08:18:02;;;;;;;6.80;1.55;;;;;;;;;;5054935;28;20056;-86
2022/10/03 08:20:48;;;;;;;7.65;1.30;;;;;;;;;;5054985;28;20090;-86
2022/10/03 08:23:18;;;;;;;7.95;2.00;;;;;;;;;;5072881;28;20056;-86
2022/10/03 08:26:01;;;;;;;6.82;1.33;;;;;;;;;;5073159;28;20445;-86
2022/10/03 08:28:45;;;;;;;5.22;1.50;;;;;;;;;;5072718;28;20099;-86
2022/10/03 08:31:13;;;;;;;7.90;1.17;;;;;;;;;;5072778;28;20052;-86
2022/10/03 08:33:49;;;;;;;6.38;1.02;;;;;;;;;;5073031;28;20114;-87
2022/10/03 08:36:31;;;;;;;6.03;1.27;;;;;;;;;;5073222;28;20078;-87
2022/10/03 08:38:58;;;;;;;6.57;1.40;;;;;;;;;;5055195;28;20040;-86
2022/10/03 08:42:02;;;;;;;2.97;0.98;;;;;;;;;;5055524;28;20048;-87
2022/10/03 08:44:48;;;;;;;4.95;1.50;;;;;;;;;;5055227;28;20060;-87
2022/10/03 08:47:42;;;;;;;6.13;1.52;;;;;;;;;;5074247;28;20048;-88
2022/10/03 08:50:24;;;;;;;6.77;1.37;;;;;;;;;;5036774;28;20072;-87
2022/10/03 08:52:59;;;;;;;8.95;1.25;;;;;;;;;;5058568;28;20484;-86
2022/10/03 08:55:45;;;;;;;6.80;1.00;;;;;;;;;;5076475;28;20076;-85
2022/10/03 08:58:31;;;;;;;4.50;1.05;;;;;;;;;;5059632;28;20063;-88
2022/10/03 09:01:11;;;;;;;5.57;1.27;;;;;;;;;;5059000;28;20058;-88
2022/10/03 09:03:57;;;;;;;5.15;1.02;;;;;;;;;;5059499;28;20135;-87
2022/10/03 09:06:34;;;;;;;2.97;0.80;;;;;;;;;;5058472;28;20527;-86
2022/10/03 09:09:20;;;;;;;5.60;0.80;;;;;;;;;;5076146;28;20041;-87
2022/10/03 09:12:09;;;;;;;2.67;1.13;;;;;;;;;;5076144;28;20053;-85
2022/10/03 09:14:37;;;;;;;4.10;0.93;;;;;;;;;;5058035;28;20063;-86
2022/10/03 09:17:22;;;;;;;7.60;3.00;;;;;;;;;;5076151;28;20080;-86
2022/10/03 09:20:08;;;;;;;5.70;1.27;;;;;;;;;;5075735;28;20053;-87
2022/10/03 09:22:55;;;;;;;6.63;1.58;;;;;;;;;;5058174;28;20075;-87
2022/10/03 09:25:28;;;;;;;9.70;1.02;;;;;;;;;;5058440;28;20045;-86
2022/10/03 09:28:01;;;;;;;3.33;0.75;;;;;;;;;;5057923;28;20513;-86
2022/10/03 09:30:38;;;;;;;6.35;0.88;;;;;;;;;;5058058;28;20488;-85
2022/10/03 09:33:23;;;;;;;6.20;2.55;;;;;;;;;;5058128;28;20052;-85
2022/10/03 09:35:59;;;;;;;5.35;1.02;;;;;;;;;;5058624;28;20067;-85
2022/10/03 09:38:45;;;;;;;5.45;0.90;;;;;;;;;;5057445;28;20045;-85
2022/10/03 09:41:27;;;;;;;4.82;0.90;;;;;;;;;;5057976;28;20048;-86
2022/10/03 09:44:12;;;;;;;3.17;0.95;;;;;;;;;;5057760;28;20055;-85
2022/10/03 09:49:59;;;;;;;3.70;0.90;;;;;;;;;;5075496;28;20049;-87
2022/10/03 09:52:37;;;;;;;5.28;1.17;;;;;;;;;;5075407;28;20550;-85
2022/10/03 09:55:29;;;;;;;3.25;0.80;;;;;;;;;;5057643;28;20382;-87
2022/10/03 09:58:16;;;;;;;5.63;0.90;;;;;;;;;;5074841;28;20135;-86
2022/10/03 10:00:46;;;;;;;4.82;0.88;;;;;;;;;;5057295;28;20499;-86
2022/10/03 10:03:26;;;;;;;4.22;1.00;;;;;;;;;;5075105;28;20045;-85
2022/10/03 10:05:59;;;;;;;2.65;1.10;;;;;;;;;;5074956;28;20440;-85
2022/10/03 10:08:47;;;;;;;4.10;0.80;;;;;;;;;;5057537;28;20053;-87
2022/10/03 10:11:32;;;;;;;3.78;0.80;;;;;;;;;;5057889;28;20048;-85
2022/10/03 10:14:10;;;;;;;4.35;0.70;;;;;;;;;;5057448;28;20056;-86
2022/10/03 10:16:56;;;;;;;2.13;0.65;;;;;;;;;;5057717;28;20052;-87
2022/10/03 10:19:42;;;;;;;3.42;0.60;;;;;;;;;;5057326;28;20049;-89
2022/10/03 10:22:18;;;;;;;5.53;0.65;;;;;;;;;;5074866;28;20044;-86
2022/10/03 10:25:00;;;;;;;4.35;1.25;;;;;;;;;;5074559;28;20048;-86
2022/10/03 10:27:38;;;;;;;4.47;0.50;;;;;;;;;;5056644;28;20048;-85
2022/10/03 10:30:20;;;;;;;5.53;1.00;;;;;;;;;;5074869;28;20048;-87
2022/10/03 10:33:07;;;;;;;2.90;0.80;;;;;;;;;;5056569;28;20063;-86
2022/10/03 10:35:46;;;;;;;2.95;0.55;;;;;;;;;;5056888;28;20052;-85
2022/10/03 10:38:26;;;;;;;2.90;0.80;;;;;;;;;;5057673;28;20059;-86
2022/10/03 10:41:03;;;;;;;2.28;0.85;;;;;;;;;;5056263;28;20052;-86
2022/10/03 10:43:52;;;;;;;6.38;1.10;;;;;;;;;;5056745;28;20128;-86
2022/10/03 10:46:41;;;;;;;4.00;0.73;;;;;;;;;;5056351;28;20056;-87
2022/10/03 10:49:09;;;;;;;16.80;1.50;;;;;;;;;;5056296;28;20079;-85
2022/10/03 10:51:55;;;;;;;5.25;1.10;;;;;;;;;;5056318;28;20054;-86
2022/10/03 10:54:37;;;;;;;10.18;1.08;;;;;;;;;;5074233;28;20455;-86
2022/10/03 10:57:17;;;;;;;4.70;0.70;;;;;;;;;;5074253;28;20059;-88
2022/10/03 10:59:44;;;;;;;5.82;1.00;;;;;;;;;;5056165;28;20048;-84
2022/10/03 11:02:31;;;;;;;3.95;0.90;;;;;;;;;;5056344;28;20136;-85
2022/10/03 11:05:16;;;;;;;1.75;0.47;;;;;;;;;;5073526;28;20049;-85
2022/10/03 11:07:54;;;;;;;2.22;0.60;;;;;;;;;;5073607;28;20501;-86
2022/10/03 11:10:40;;;;;;;2.80;0.60;;;;;;;;;;5055339;28;20049;-85
2022/10/03 11:13:26;;;;;;;4.35;0.80;;;;;;;;;;5073545;28;20435;-86
2022/10/03 11:16:15;;;;;;;5.30;0.82;;;;;;;;;;5056379;28;20077;-86
2022/10/03 11:18:42;;;;;;;6.78;1.00;;;;;;;;;;5056003;28;20056;-86
2022/10/03 11:21:09;;;;;;;3.00;0.75;;;;;;;;;;5056006;28;20496;-86
2022/10/03 11:23:55;;;;;;;5.40;0.80;;;;;;;;;;5055467;28;20515;-85
2022/10/03 11:26:22;;;;;;;7.47;0.55;;;;;;;;;;5055996;28;20057;-87
2022/10/03 11:29:10;;;;;;;5.82;0.80;;;;;;;;;;5056195;28;20385;-87
2022/10/03 11:31:59;;;;;;;2.40;0.60;;;;;;;;;;5056157;28;20060;-88
2022/10/03 11:34:35;;;;;;;4.00;0.80;;;;;;;;;;5056673;28;20431;-87
2022/10/03 11:37:03;;;;;;;2.60;0.80;;;;;;;;;;5055935;28;20122;-89
2022/10/03 11:39:54;;;;;;;3.42;0.70;;;;;;;;;;5056176;28;20056;-88
2022/10/03 11:42:38;;;;;;;3.42;0.65;;;;;;;;;;5056034;28;20048;-87
2022/10/03 11:45:15;;;;;;;1.17;0.50;;;;;;;;;;5055680;28;20083;-86
2022/10/03 11:48:05;;;;;;;3.53;0.70;;;;;;;;;;5055537;28;20527;-87
2022/10/03 11:50:44;;;;;;;3.17;0.60;;;;;;;;;;5028210;28;20083;-86
2022/10/03 11:53:16;;;;;;;3.38;0.80;;;;;;;;;;5055378;28;20512;-85
2022/10/03 11:55:50;;;;;;;2.10;0.60;;;;;;;;;;5055441;28;20049;-87
2022/10/03 11:58:48;;;;;;;3.22;0.50;;;;;;;;;;5073103;28;20049;-87
2022/10/03 12:01:34;;;;;;;1.63;0.55;;;;;;;;;;5003323;28;20053;-88
2022/10/03 12:04:27;;;;;;;2.15;0.45;;;;;;;;;;5055613;28;20485;-86
2022/10/03 12:09:55;;;;;;;4.90;0.70;;;;;;;;;;5073623;28;20060;-87
2022/10/03 12:12:42;;;;;;;3.40;0.90;;;;;;;;;;5055301;28;20056;-86
2022/10/03 12:15:28;;;;;;;2.10;0.45;;;;;;;;;;5055320;28;20084;-87
2022/10/03 12:18:05;;;;;;;1.98;0.50;;;;;;;;;;5073653;28;20131;-86
2022/10/03 12:20:32;;;;;;;3.78;0.70;;;;;;;;;;5055338;28;20040;-87
2022/10/03 12:23:06;;;;;;;2.92;0.73;;;;;;;;;;5075365;28;20505;-86
2022/10/03 12:25:40;;;;;;;1.23;0.52;;;;;;;;;;5059265;28;20053;-85
2022/10/03 12:28:29;;;;;;;3.10;0.57;;;;;;;;;;5059308;28;20431;-85
2022/10/03 12:31:01;;;;;;;3.55;0.82;;;;;;;;;;5076863;28;20052;-86
2022/10/03 12:33:47;;;;;;;1.40;0.50;;;;;;;;;;5059310;28;20052;-88
2022/10/03 12:36:35;;;;;;;1.33;0.40;;;;;;;;;;5058967;28;20058;-85
2022/10/03 12:39:15;;;;;;;2.35;0.80;;;;;;;;;;5058903;28;20072;-86
2022/10/03 12:42:00;;;;;;;1.10;0.60;;;;;;;;;;5076362;28;20044;-86
2022/10/03 12:44:30;;;;;;;2.97;0.70;;;;;;;;;;5076409;28;20064;-86
2022/10/03 12:47:07;;;;;;;3.08;1.33;;;;;;;;;;5076377;28;20504;-86
2022/10/03 12:49:34;;;;;;;2.25;1.02;;;;;;;;;;5059067;28;20135;-86
2022/10/03 12:52:06;;;;;;;1.20;0.43;;;;;;;;;;5058395;28;20381;-83
2022/10/03 12:54:44;;;;;;;2.35;0.63;;;;;;;;;;5058452;28;20048;-87
2022/10/03 12:57:30;;;;;;;2.13;0.60;;;;;;;;;;5058737;28;20044;-87
2022/10/03 13:00:00;;;;;;;8.50;0.70;;;;;;;;;;5058295;28;20048;-85
2022/10/03 13:02:40;;;;;;;8.07;0.80;;;;;;;;;;5076063;28;20127;-85
2022/10/03 13:05:40;;;;;;;2.38;0.50;;;;;;;;;;5058202;28;20063;-86
2022/10/03 13:08:16;;;;;;;2.30;0.52;;;;;;;;;;5042875;28;20049;-85
2022/10/03 13:11:08;;;;;;;1.90;0.60;;;;;;;;;;5058349;28;20052;-86
2022/10/03 13:13:59;;;;;;;5.47;0.85;;;;;;;;;;5075943;28;20537;-86
2022/10/03 13:16:32;;;;;;;4.45;0.65;;;;;;;;;;5075960;28;20131;-86
2022/10/03 13:19:09;;;;;;;3.83;0.55;;;;;;;;;;5057925;28;20504;-87
2022/10/03 13:21:46;;;;;;;1.98;0.63;;;;;;;;;;5058423;28;20048;-88
2022/10/03 13:24:33;;;;;;;3.50;0.60;;;;;;;;;;5075928;28;20484;-86
2022/10/03 13:27:15;;;;;;;2.92;0.60;;;;;;;;;;5075775;28;20053;-86
2022/10/03 13:29:47;;;;;;;3.08;0.82;;;;;;;;;;5075621;28;20481;-86
2022/10/03 13:32:33;;;;;;;2.90;0.52;;;;;;;;;;5057381;28;20052;-86
2022/10/03 13:37:58;;;;;;;3.75;0.52;;;;;;;;;;5075520;28;20131;-88
2022/10/03 13:40:29;;;;;;;1.08;0.50;;;;;;;;;;5075587;28;20106;-86
2022/10/03 13:42:56;;;;;;;1.85;0.60;;;;;;;;;;5075616;28;20412;-86
2022/10/03 13:45:25;;;;;;;2.88;0.60;;;;;;;;;;5057276;28;20056;-85
2022/10/03 13:47:54;;;;;;;4.30;0.60;;;;;;;;;;5057457;28;20106;-86
2022/10/03 13:50:26;;;;;;;1.48;0.50;;;;;;;;;;5057474;28;20123;-86
2022/10/03 13:53:12;;;;;;;1.55;0.63;;;;;;;;;;5057599;28;20048;-87
2022/10/03 13:55:46;;;;;;;4.18;1.17;;;;;;;;;;5057479;28;20059;-86
2022/10/03 13:58:22;;;;;;;1.50;0.70;;;;;;;;;;5074269;28;20484;-86
2022/10/03 14:01:13;;;;;;;2.35;0.88;;;;;;;;;;5075038;28;20405;-87
2022/10/03 14:04:00;;;;;;;3.55;0.65;;;;;;;;;;5057574;28;20054;-87
2022/10/03 14:06:34;;;;;;;1.50;0.50;;;;;;;;;;5057341;28;20052;-86
2022/10/03 14:09:16;;;;;;;5.82;0.70;;;;;;;;;;5074953;28;20055;-86
2022/10/03 14:12:02;;;;;;;2.58;0.60;;;;;;;;;;5057375;28;20152;-88
2022/10/03 14:14:38;;;;;;;1.75;0.45;;;;;;;;;;5057331;28;20056;-89
2022/10/03 14:17:24;;;;;;;2.53;0.70;;;;;;;;;;5057492;28;20052;-88
2022/10/03 14:19:54;;;;;;;4.55;0.60;;;;;;;;;;5074854;28;20099;-86
2022/10/03 14:22:27;;;;;;;4.53;0.68;;;;;;;;;;5057263;28;20044;-88
2022/10/03 14:24:54;;;;;;;2.17;0.77;;;;;;;;;;5074673;28;20048;-86
2022/10/03 14:27:40;;;;;;;2.35;1.25;;;;;;;;;;5074661;28;20051;-86
2022/10/03 14:30:14;;;;;;;5.05;1.00;;;;;;;;;;5056971;28;20145;-88
2022/10/03 14:32:50;;;;;;;2.95;1.10;;;;;;;;;;5057196;28;20052;-87
2022/10/03 14:35:36;;;;;;;4.63;1.05;;;;;;;;;;5074542;28;20098;-87
2022/10/03 14:38:06;;;;;;;3.42;0.90;;;;;;;;;;5074661;28;20090;-88
2022/10/03 14:40:39;;;;;;;1.88;1.02;;;;;;;;;;5056873;28;20082;-88
2022/10/03 14:43:14;;;;;;;3.60;0.60;;;;;;;;;;5056877;28;20044;-89
2022/10/03 14:45:49;;;;;;;6.07;1.00;;;;;;;;;;5055929;28;20305;-87
2022/10/03 14:48:19;;;;;;;3.35;1.17;;;;;;;;;;5074289;28;20052;-87
2022/10/03 14:50:49;;;;;;;2.63;0.75;;;;;;;;;;5056460;28;20055;-87
2022/10/03 14:53:19;;;;;;;3.95;0.93;;;;;;;;;;5074444;28;20094;-86
2022/10/03 14:55:55;;;;;;;4.63;1.02;;;;;;;;;;5056220;28;20055;-86
2022/10/03 14:58:28;;;;;;;2.25;0.85;;;;;;;;;;5056436;28;20050;-86
2022/10/03 15:01:11;;;;;;;4.55;0.88;;;;;;;;;;5056737;28;20048;-87
2022/10/03 15:04:05;;;;;;;1.63;0.65;;;;;;;;;;5056436;28;20056;-86
2022/10/03 15:06:49;;;;;;;5.65;0.80;;;;;;;;;;5033934;28;20051;-86
2022/10/03 15:09:19;;;;;;;5.63;0.90;;;;;;;;;;5056270;28;20054;-87
2022/10/03 15:11:52;;;;;;;4.38;1.00;;;;;;;;;;5056192;28;20051;-87
2022/10/03 15:14:21;;;;;;;5.70;0.77;;;;;;;;;;5073634;28;20410;-87
2022/10/03 15:16:53;;;;;;;1.30;0.52;;;;;;;;;;5073655;28;20059;-87
2022/10/03 15:19:33;;;;;;;3.13;0.60;;;;;;;;;;5073674;28;20511;-86
2022/10/03 15:22:05;;;;;;;1.95;0.63;;;;;;;;;;5073755;28;20530;-86
2022/10/03 15:24:34;;;;;;;4.28;0.82;;;;;;;;;;5073637;28;20048;-87
2022/10/03 15:27:04;;;;;;;2.67;0.70;;;;;;;;;;5056019;28;20080;-86
2022/10/03 15:29:31;;;;;;;6.35;0.88;;;;;;;;;;5056259;28;20131;-86
2022/10/03 15:31:59;;;;;;;4.55;0.93;;;;;;;;;;5055684;28;20128;-87
2022/10/03 15:34:38;;;;;;;1.90;0.70;;;;;;;;;;5073743;28;20507;-88
2022/10/03 15:37:25;;;;;;;4.45;0.85;;;;;;;;;;5055935;28;20412;-86
2022/10/03 15:39:53;;;;;;;3.80;0.82;;;;;;;;;;5073334;28;20053;-87
2022/10/03 15:42:22;;;;;;;6.07;1.05;;;;;;;;;;5056061;28;20052;-87
2022/10/03 15:44:54;;;;;;;4.07;0.85;;;;;;;;;;5055559;28;20068;-86
2022/10/03 15:47:22;;;;;;;1.35;0.75;;;;;;;;;;5055805;28;20405;-86
2022/10/03 15:49:55;;;;;;;3.88;0.90;;;;;;;;;;5055516;28;20052;-87
2022/10/03 15:52:26;;;;;;;1.95;0.80;;;;;;;;;;5056086;28;20045;-87
2022/10/03 15:54:56;;;;;;;2.58;0.70;;;;;;;;;;5073238;28;20140;-87
2022/10/03 15:57:39;;;;;;;3.72;0.88;;;;;;;;;;5057526;28;20048;-88
2022/10/03 16:00:07;;;;;;;3.33;0.80;;;;;;;;;;5055653;28;20063;-86